createdAt,value
2018-08-20T00:02:07.460Z,100.00
2018-08-20T00:04:41.216Z,100.00
2018-08-20T00:07:09.932Z,100.00
2018-08-20T00:09:43.783Z,100.00
2018-08-20T00:12:12.421Z,100.00
2018-08-20T00:14:41.669Z,100.00
2018-08-20T00:17:10.347Z,100.00
2018-08-20T00:19:41.139Z,100.00
2018-08-20T00:22:10.196Z,100.00
2018-08-20T00:24:38.837Z,100.00
2018-08-20T00:27:07.572Z,100.00
2018-08-20T00:29:38.963Z,100.00
2018-08-20T00:32:07.680Z,100.00
2018-08-20T00:34:36.384Z,100.00
2018-08-20T00:37:05.858Z,100.00
2018-08-20T00:39:34.499Z,100.00
2018-08-20T00:42:03.168Z,100.00
2018-08-20T00:44:31.846Z,100.00
2018-08-20T00:47:00.471Z,100.00
2018-08-20T00:49:29.115Z,100.00
2018-08-20T00:51:57.797Z,100.00
2018-08-20T00:54:26.448Z,100.00
2018-08-20T00:56:55.560Z,100.00
2018-08-20T00:59:24.187Z,100.00
2018-08-20T01:01:52.812Z,100.00
2018-08-20T01:04:21.486Z,100.00
2018-08-20T01:06:50.544Z,100.00
2018-08-20T01:09:19.216Z,100.00
2018-08-20T01:11:47.876Z,100.00
2018-08-20T01:14:16.522Z,100.00
2018-08-20T01:16:45.176Z,100.00
2018-08-20T01:19:14.983Z,100.00
2018-08-20T01:21:43.719Z,100.00
2018-08-20T01:24:12.433Z,100.00
2018-08-20T01:26:41.111Z,100.00
2018-08-20T01:29:09.763Z,100.00
2018-08-20T01:31:38.428Z,100.00
2018-08-20T01:34:07.139Z,100.00
2018-08-20T01:36:35.792Z,100.00
2018-08-20T01:39:05.483Z,100.00
2018-08-20T01:41:34.143Z,100.00
2018-08-20T01:44:02.793Z,100.00
2018-08-20T01:46:31.443Z,100.00
2018-08-20T01:49:00.117Z,100.00
2018-08-20T01:51:29.820Z,100.00
2018-08-20T01:53:58.468Z,100.00
2018-08-20T01:56:27.116Z,100.00
2018-08-20T01:58:55.788Z,100.00
2018-08-20T02:18:09.808Z,100.00
2018-08-20T02:20:38.480Z,100.00
2018-08-20T02:23:07.771Z,100.00
2018-08-20T02:25:37.411Z,100.00
2018-08-20T02:28:06.744Z,100.00
2018-08-20T02:30:35.448Z,100.00
2018-08-20T02:33:04.212Z,100.00
2018-08-20T02:35:32.844Z,100.00
2018-08-20T02:38:01.507Z,100.00
2018-08-20T02:40:30.812Z,100.00
2018-08-20T02:43:00.413Z,100.00
2018-08-20T02:45:29.073Z,100.00
2018-08-20T02:47:57.731Z,100.00
2018-08-20T02:50:26.392Z,100.00
2018-08-20T02:52:55.138Z,100.00
2018-08-20T02:55:23.854Z,100.00
2018-08-20T02:57:52.530Z,100.00
2018-08-20T03:00:21.231Z,100.00
2018-08-20T03:02:49.888Z,100.00
2018-08-20T03:05:19.165Z,100.00
2018-08-20T03:07:47.833Z,100.00
2018-08-20T03:10:16.516Z,100.00
2018-08-20T03:12:45.184Z,100.00
2018-08-20T03:15:13.831Z,100.00
2018-08-20T03:17:42.462Z,100.00
2018-08-20T03:20:11.191Z,100.00
2018-08-20T03:22:39.811Z,100.00
2018-08-20T03:25:08.832Z,100.00
2018-08-20T03:27:37.616Z,100.00
2018-08-20T03:30:07.755Z,100.00
2018-08-20T03:32:36.636Z,100.00
2018-08-20T03:35:06.876Z,100.00
2018-08-20T03:37:35.611Z,100.00
2018-08-20T03:40:04.533Z,100.00
2018-08-20T03:42:33.204Z,100.00
2018-08-20T03:45:01.869Z,100.00
2018-08-20T03:47:30.662Z,100.00
2018-08-20T03:49:59.316Z,100.00
2018-08-20T03:52:28.596Z,100.00
2018-08-20T03:54:57.264Z,100.00
2018-08-20T03:57:25.944Z,100.00
2018-08-20T03:59:54.600Z,100.00
2018-08-20T04:02:23.254Z,100.00
2018-08-20T04:04:51.899Z,100.00
2018-08-20T04:07:20.550Z,100.00
2018-08-20T04:09:49.163Z,100.00
2018-08-20T04:12:17.783Z,100.00
2018-08-20T04:14:46.411Z,100.00
2018-08-20T04:17:15.048Z,100.00
2018-08-20T04:19:43.700Z,100.00
2018-08-20T04:22:12.346Z,100.00
2018-08-20T04:24:40.984Z,100.00
2018-08-20T04:27:09.831Z,100.00
2018-08-20T04:29:39.039Z,100.00
2018-08-20T04:32:07.721Z,100.00
2018-08-20T04:34:36.348Z,100.00
2018-08-20T04:37:05.077Z,100.00
2018-08-20T04:39:33.719Z,100.00
2018-08-20T04:42:02.432Z,100.00
2018-08-20T04:44:31.027Z,100.00
2018-08-20T04:46:59.684Z,100.00
2018-08-20T04:49:28.331Z,100.00
2018-08-20T04:51:56.961Z,100.00
2018-08-20T04:54:25.613Z,100.00
2018-08-20T04:56:54.292Z,100.00
2018-08-20T04:59:22.954Z,100.00
2018-08-20T05:01:51.708Z,100.00
2018-08-20T05:04:20.363Z,100.00
2018-08-20T05:06:49.030Z,100.00
2018-08-20T05:09:17.792Z,100.00
2018-08-20T05:11:46.477Z,100.00
2018-08-20T05:14:15.137Z,100.00
2018-08-20T05:16:43.803Z,100.00
2018-08-20T05:19:12.442Z,100.00
2018-08-20T05:21:41.115Z,100.00
2018-08-20T05:24:09.763Z,100.00
2018-08-20T05:26:38.478Z,100.00
2018-08-20T05:29:07.649Z,100.00
2018-08-20T05:31:36.344Z,100.00
2018-08-20T05:34:05.020Z,100.00
2018-08-20T05:36:34.673Z,100.00
2018-08-20T05:39:03.587Z,100.00
2018-08-20T05:41:32.233Z,100.00
2018-08-20T05:44:01.815Z,100.00
2018-08-20T05:46:30.501Z,100.00
2018-08-20T05:48:59.147Z,100.00
2018-08-20T05:51:27.788Z,100.00
2018-08-20T05:53:57.143Z,100.00
2018-08-20T05:56:25.829Z,100.00
2018-08-20T05:58:54.500Z,100.00
2018-08-20T06:01:23.212Z,100.00
2018-08-20T06:03:52.185Z,100.00
2018-08-20T06:06:20.878Z,100.00
2018-08-20T06:08:49.538Z,100.00
2018-08-20T06:11:18.216Z,100.00
2018-08-20T06:13:46.972Z,100.00
2018-08-20T06:16:15.619Z,100.00
2018-08-20T06:18:44.363Z,100.00
2018-08-20T06:21:13.026Z,100.00
2018-08-20T06:23:41.704Z,100.00
2018-08-20T06:26:10.456Z,100.00
2018-08-20T06:28:39.265Z,100.00
2018-08-20T06:31:07.919Z,100.00
2018-08-20T06:33:36.922Z,100.00
2018-08-20T06:36:06.527Z,100.00
2018-08-20T06:38:35.886Z,100.00
2018-08-20T06:41:04.635Z,100.00
2018-08-20T06:43:33.311Z,100.00
2018-08-20T07:02:44.654Z,100.00
2018-08-20T07:05:13.451Z,100.00
2018-08-20T07:07:43.315Z,100.00
2018-08-20T07:10:14.096Z,100.00
2018-08-20T07:12:43.051Z,100.00
2018-08-20T07:15:13.628Z,100.00
2018-08-20T07:17:42.462Z,100.00
2018-08-20T07:20:12.753Z,100.00
2018-08-20T07:22:42.613Z,100.00
2018-08-20T07:25:12.964Z,100.00
2018-08-20T07:27:42.465Z,100.00
2018-08-20T07:30:11.995Z,100.00
2018-08-20T07:32:40.806Z,100.00
2018-08-20T07:35:09.833Z,100.00
2018-08-20T07:37:38.613Z,100.00
2018-08-20T07:40:08.283Z,100.00
2018-08-20T07:42:37.139Z,100.00
2018-08-20T07:45:06.062Z,100.00
2018-08-20T07:47:34.764Z,100.00
2018-08-20T07:50:03.617Z,100.00
2018-08-20T07:52:32.337Z,100.00
2018-08-20T07:55:00.982Z,100.00
2018-08-20T07:57:29.720Z,100.00
2018-08-20T07:59:58.632Z,100.00
2018-08-20T08:02:27.405Z,100.00
2018-08-20T08:04:56.100Z,100.00
2018-08-20T08:07:25.488Z,100.00
2018-08-20T08:09:54.295Z,100.00
2018-08-20T08:12:23.066Z,100.00
2018-08-20T08:14:51.736Z,100.00
2018-08-20T08:17:20.440Z,100.00
2018-08-20T08:19:50.236Z,100.00
2018-08-20T08:22:19.737Z,100.00
2018-08-20T08:24:48.413Z,100.00
2018-08-20T08:27:17.958Z,100.00
2018-08-20T08:29:46.620Z,100.00
2018-08-20T08:32:15.432Z,100.00
2018-08-20T08:34:44.153Z,100.00
2018-08-20T08:37:12.987Z,100.00
2018-08-20T08:39:41.834Z,100.00
2018-08-20T08:42:10.530Z,100.00
2018-08-20T08:44:39.260Z,100.00
2018-08-20T08:47:08.099Z,100.00
2018-08-20T08:49:36.812Z,100.00
2018-08-20T08:52:05.916Z,100.00
2018-08-20T08:54:34.646Z,100.00
2018-08-20T08:57:03.420Z,100.00
2018-08-20T08:59:32.606Z,100.00
2018-08-20T09:02:01.307Z,100.00
2018-08-20T09:04:30.673Z,100.00
2018-08-20T09:06:59.456Z,100.00
2018-08-20T09:09:28.247Z,100.00
2018-08-20T09:11:56.986Z,100.00
2018-08-20T09:14:25.707Z,100.00
2018-08-20T09:16:54.433Z,100.00
2018-08-20T09:19:23.345Z,100.00
2018-08-20T09:21:52.212Z,100.00
2018-08-20T09:24:21.107Z,100.00
2018-08-20T09:26:49.895Z,100.00
2018-08-20T09:29:18.643Z,100.00
2018-08-20T09:31:47.332Z,100.00
2018-08-20T09:34:16.151Z,100.00
2018-08-20T09:36:44.961Z,100.00
2018-08-20T09:39:13.684Z,100.00
2018-08-20T09:41:42.492Z,100.00
2018-08-20T09:44:11.228Z,100.00
2018-08-20T09:46:40.101Z,100.00
2018-08-20T09:49:09.637Z,100.00
2018-08-20T09:51:38.357Z,100.00
2018-08-20T09:54:07.049Z,100.00
2018-08-20T09:56:36.329Z,100.00
2018-08-20T09:59:05.166Z,100.00
2018-08-20T10:01:33.932Z,100.00
2018-08-20T10:04:02.725Z,100.00
2018-08-20T10:06:31.403Z,100.00
2018-08-20T10:09:00.151Z,100.00
2018-08-20T10:11:28.912Z,100.00
2018-08-20T10:13:57.752Z,100.00
2018-08-20T10:16:26.504Z,100.00
2018-08-20T10:18:55.291Z,100.00
2018-08-20T10:21:24.421Z,100.00
2018-08-20T10:23:53.106Z,100.00
2018-08-20T10:26:21.880Z,100.00
2018-08-20T10:28:50.629Z,100.00
2018-08-20T10:31:19.390Z,100.00
2018-08-20T10:33:48.101Z,100.00
2018-08-20T10:36:16.815Z,100.00
2018-08-20T10:38:45.617Z,100.00
2018-08-20T10:41:15.040Z,100.00
2018-08-20T10:43:43.852Z,100.00
2018-08-20T10:46:17.556Z,100.00
2018-08-20T10:48:46.307Z,100.00
2018-08-20T10:51:15.031Z,100.00
2018-08-20T10:53:43.840Z,100.00
2018-08-20T10:56:12.658Z,100.00
2018-08-20T10:58:41.419Z,100.00
2018-08-20T11:01:10.198Z,100.00
2018-08-20T11:03:43.420Z,100.00
2018-08-20T11:06:12.182Z,100.00
2018-08-20T11:08:41.261Z,100.00
2018-08-20T11:11:09.930Z,100.00
2018-08-20T11:13:38.803Z,99.70
2018-08-20T11:16:07.773Z,99.93
2018-08-20T11:18:36.674Z,99.85
2018-08-20T11:21:05.977Z,99.52
2018-08-20T11:23:34.668Z,99.71
2018-08-20T11:26:03.528Z,99.76
2018-08-20T11:28:32.214Z,99.81
2018-08-20T11:31:01.252Z,99.77
2018-08-20T11:33:29.975Z,99.84
2018-08-20T11:35:59.120Z,99.60
2018-08-20T11:38:27.992Z,99.68
2018-08-20T11:40:56.732Z,99.64
2018-08-20T11:43:25.428Z,99.64
2018-08-20T11:45:54.137Z,99.40
2018-08-20T11:48:22.950Z,99.18
2018-08-20T11:50:51.710Z,98.93
2018-08-20T11:53:20.386Z,98.66
2018-08-20T11:55:49.167Z,98.74
2018-08-20T11:58:18.519Z,98.68
2018-08-20T12:00:47.855Z,98.77
2018-08-20T12:03:16.584Z,97.88
2018-08-20T12:05:45.890Z,97.30
2018-08-20T12:08:14.621Z,97.49
2018-08-20T12:10:43.378Z,97.03
2018-08-20T12:13:12.082Z,97.59
2018-08-20T12:15:41.340Z,97.47
2018-08-20T12:18:10.100Z,97.15
2018-08-20T12:20:38.943Z,97.14
2018-08-20T12:23:07.763Z,97.07
2018-08-20T12:25:36.449Z,96.98
2018-08-20T12:28:06.248Z,96.51
2018-08-20T12:30:34.989Z,96.15
2018-08-20T12:33:04.560Z,95.44
2018-08-20T12:35:33.325Z,94.87
2018-08-20T12:38:02.051Z,94.96
2018-08-20T12:40:30.841Z,93.91
2018-08-20T12:42:59.520Z,95.17
2018-08-20T12:45:28.344Z,94.70
2018-08-20T12:47:57.051Z,94.52
2018-08-20T12:50:25.868Z,94.74
2018-08-20T12:52:54.893Z,94.56
2018-08-20T12:55:23.613Z,94.72
2018-08-20T12:57:54.352Z,94.70
2018-08-20T13:00:23.154Z,93.87
2018-08-20T13:02:52.282Z,94.01
2018-08-20T13:05:22.890Z,93.62
2018-08-20T13:07:51.571Z,93.97
2018-08-20T13:10:20.382Z,94.26
2018-08-20T13:12:49.150Z,93.85
2018-08-20T13:15:18.271Z,93.03
2018-08-20T13:17:48.948Z,93.68
2018-08-20T13:20:17.823Z,93.51
2018-08-20T13:22:46.492Z,93.36
2018-08-20T13:25:15.187Z,93.90
2018-08-20T13:44:26.483Z,93.44
2018-08-20T13:46:55.155Z,92.61
2018-08-20T13:49:23.844Z,92.78
2018-08-20T13:51:53.412Z,92.85
2018-08-20T13:54:22.130Z,92.38
2018-08-20T13:56:50.781Z,91.75
2018-08-20T13:59:19.460Z,91.79
2018-08-20T14:01:48.162Z,92.12
2018-08-20T14:04:16.810Z,91.39
2018-08-20T14:23:29.028Z,91.09
2018-08-20T14:25:57.761Z,92.05
2018-08-20T14:28:26.493Z,92.17
2018-08-20T14:30:55.345Z,91.89
2018-08-20T14:33:24.025Z,92.82
2018-08-20T14:35:52.765Z,92.55
2018-08-20T14:38:21.552Z,93.61
2018-08-20T14:40:50.292Z,93.05
2018-08-20T14:43:19.088Z,93.35
2018-08-20T14:45:53.032Z,93.90
2018-08-20T14:48:21.729Z,94.57
2018-08-20T14:50:50.556Z,94.08
2018-08-20T14:53:19.526Z,94.45
2018-08-20T14:55:48.253Z,94.49
2018-08-20T14:58:17.056Z,94.68
2018-08-20T15:00:45.819Z,94.83
2018-08-20T15:03:14.761Z,95.11
2018-08-20T15:05:43.424Z,94.99
2018-08-20T15:08:12.233Z,95.09
2018-08-20T15:10:41.053Z,94.96
2018-08-20T15:13:09.900Z,95.10
2018-08-20T15:15:38.800Z,95.53
2018-08-20T15:18:07.471Z,95.88
2018-08-20T15:20:36.161Z,96.33
2018-08-20T15:23:04.856Z,96.66
2018-08-20T15:25:33.497Z,96.80
2018-08-20T15:28:02.185Z,97.72
2018-08-20T15:30:30.884Z,97.56
2018-08-20T15:32:59.604Z,97.50
2018-08-20T15:35:29.387Z,97.73
2018-08-20T15:37:58.113Z,97.92
2018-08-20T15:40:26.927Z,97.69
2018-08-20T15:42:55.632Z,98.04
2018-08-20T15:45:24.342Z,98.11
2018-08-20T15:47:53.139Z,97.49
2018-08-20T15:50:21.832Z,97.98
2018-08-20T15:52:50.672Z,98.11
2018-08-20T15:55:19.416Z,98.21
2018-08-20T15:57:48.296Z,98.24
2018-08-20T16:00:17.085Z,98.41
2018-08-20T16:02:45.928Z,98.37
2018-08-20T16:05:14.773Z,98.73
2018-08-20T16:07:43.590Z,99.16
2018-08-20T16:10:13.002Z,99.65
2018-08-20T16:12:41.687Z,99.80
2018-08-20T16:15:10.756Z,99.96
2018-08-20T16:17:39.515Z,100.00
2018-08-20T16:20:08.572Z,100.00
2018-08-20T16:22:37.687Z,100.00
2018-08-20T16:25:07.799Z,100.00
2018-08-20T16:27:36.592Z,100.00
2018-08-20T16:30:08.174Z,100.00
2018-08-20T16:32:36.908Z,100.00
2018-08-20T16:35:06.079Z,100.00
2018-08-20T16:37:34.784Z,100.00
2018-08-20T16:40:03.447Z,100.00
2018-08-20T16:42:32.143Z,100.00
2018-08-20T16:45:00.863Z,100.00
2018-08-20T17:04:30.248Z,99.78
2018-08-20T17:07:00.058Z,99.79
2018-08-20T17:09:29.090Z,99.52
2018-08-20T17:11:57.822Z,99.23
2018-08-20T17:14:26.568Z,99.04
2018-08-20T17:16:55.393Z,99.05
2018-08-20T17:19:24.136Z,98.86
2018-08-20T17:21:52.783Z,98.75
2018-08-20T17:24:29.500Z,98.67
2018-08-20T17:26:59.260Z,98.74
2018-08-20T17:29:28.116Z,98.45
2018-08-20T17:31:56.879Z,98.14
2018-08-20T17:34:25.723Z,98.29
2018-08-20T17:36:54.613Z,98.21
2018-08-20T17:39:23.321Z,98.07
2018-08-20T17:41:52.192Z,98.25
2018-08-20T17:44:22.323Z,98.06
2018-08-20T17:46:51.169Z,98.13
2018-08-20T17:49:25.092Z,98.10
2018-08-20T17:51:53.761Z,98.10
2018-08-20T17:54:22.604Z,98.05
2018-08-20T17:56:51.305Z,97.89
2018-08-20T17:59:21.413Z,97.78
2018-08-20T18:01:50.168Z,97.73
2018-08-20T18:04:19.387Z,97.71
2018-08-20T18:06:51.244Z,97.70
2018-08-20T18:09:20.019Z,97.79
2018-08-20T18:11:49.238Z,97.97
2018-08-20T18:14:18.807Z,98.01
2018-08-20T18:16:47.525Z,98.00
2018-08-20T18:19:16.596Z,98.15
2018-08-20T18:21:45.372Z,98.30
2018-08-20T18:24:16.052Z,98.56
2018-08-20T18:26:52.383Z,98.62
2018-08-20T18:29:21.218Z,98.72
2018-08-20T18:31:57.287Z,98.58
2018-08-20T18:34:25.980Z,98.74
2018-08-20T18:53:37.194Z,100.00
2018-08-20T18:56:13.396Z,99.79
2018-08-20T18:58:42.789Z,100.00
2018-08-20T19:01:11.597Z,100.00
2018-08-20T19:03:45.386Z,100.00
2018-08-20T19:06:14.592Z,100.00
2018-08-20T19:08:43.528Z,100.00
2018-08-20T19:11:12.740Z,100.00
2018-08-20T19:13:41.838Z,100.00
2018-08-20T19:16:42.132Z,100.00
2018-08-20T19:19:10.987Z,100.00
2018-08-20T19:21:41.366Z,100.00
2018-08-20T19:24:10.584Z,100.00
2018-08-20T19:26:39.411Z,100.00
2018-08-20T19:29:32.001Z,100.00
2018-08-20T19:32:00.769Z,100.00
2018-08-20T19:34:29.441Z,100.00
2018-08-20T19:36:58.169Z,100.00
2018-08-20T19:39:26.871Z,100.00
2018-08-20T19:41:55.570Z,100.00
2018-08-20T19:44:24.268Z,100.00
2018-08-20T19:46:55.859Z,100.00
2018-08-20T19:49:24.651Z,100.00
2018-08-20T19:51:53.416Z,100.00
2018-08-20T19:54:22.040Z,100.00
2018-08-20T19:56:50.772Z,100.00
2018-08-20T19:59:38.644Z,100.00
2018-08-20T20:02:12.671Z,100.00
2018-08-20T20:04:41.362Z,100.00
2018-08-20T20:07:10.082Z,100.00
2018-08-20T20:09:38.801Z,100.00
2018-08-20T20:12:07.552Z,100.00
2018-08-20T20:14:44.374Z,100.00
2018-08-20T20:17:13.116Z,100.00
2018-08-20T20:19:41.842Z,100.00
2018-08-20T20:22:13.254Z,100.00
2018-08-20T20:24:41.987Z,100.00
2018-08-20T20:27:10.814Z,100.00
2018-08-20T20:29:39.568Z,100.00
2018-08-20T20:32:08.300Z,100.00
2018-08-20T20:51:20.152Z,100.00
2018-08-20T20:53:49.079Z,100.00
2018-08-20T20:56:17.776Z,100.00
2018-08-20T20:58:46.454Z,100.00
2018-08-20T21:01:15.207Z,100.00
2018-08-20T21:03:43.896Z,100.00
2018-08-20T21:06:12.580Z,100.00
2018-08-20T21:08:50.408Z,100.00
2018-08-20T21:11:20.492Z,100.00
2018-08-20T21:13:49.390Z,100.00
2018-08-20T21:16:21.868Z,100.00
2018-08-20T21:18:58.206Z,100.00
2018-08-20T21:21:27.693Z,100.00
2018-08-20T21:23:57.640Z,100.00
2018-08-20T21:26:26.381Z,100.00
2018-08-20T21:28:55.479Z,100.00
2018-08-20T21:31:26.163Z,100.00
2018-08-20T21:33:56.088Z,100.00
2018-08-20T21:36:24.800Z,100.00
2018-08-20T21:38:53.456Z,100.00
2018-08-20T21:41:29.989Z,100.00
2018-08-20T21:43:59.662Z,100.00
2018-08-20T21:46:28.313Z,100.00
2018-08-20T21:48:57.071Z,100.00
2018-08-20T21:51:27.413Z,100.00
2018-08-20T21:53:56.116Z,100.00
2018-08-20T21:56:25.104Z,100.00
2018-08-20T21:58:53.771Z,100.00
2018-08-20T22:01:22.624Z,100.00
2018-08-20T22:03:51.225Z,100.00
2018-08-20T22:06:19.928Z,100.00
2018-08-20T22:08:48.600Z,100.00
2018-08-20T22:11:17.291Z,100.00
2018-08-20T22:13:46.005Z,100.00
2018-08-20T22:16:20.431Z,100.00
2018-08-20T22:18:55.168Z,100.00
2018-08-20T22:21:24.007Z,100.00
2018-08-20T22:23:55.975Z,100.00
2018-08-20T22:26:24.671Z,100.00
2018-08-20T22:28:53.367Z,100.00
2018-08-20T22:31:22.085Z,100.00
2018-08-20T22:33:56.940Z,100.00
2018-08-20T22:36:26.160Z,100.00
2018-08-20T22:38:56.896Z,100.00
2018-08-20T22:41:26.685Z,100.00
2018-08-20T22:43:55.392Z,100.00
2018-08-20T22:46:24.544Z,100.00
2018-08-20T22:48:54.908Z,100.00
2018-08-20T22:51:24.739Z,100.00
2018-08-20T22:53:54.335Z,100.00
2018-08-20T22:56:24.497Z,100.00
2018-08-20T22:58:54.472Z,100.00
2018-08-20T23:01:23.136Z,100.00
2018-08-20T23:03:51.856Z,100.00
2018-08-20T23:06:20.597Z,100.00
2018-08-20T23:08:49.314Z,100.00
2018-08-20T23:11:33.055Z,100.00
2018-08-20T23:14:01.720Z,100.00
2018-08-20T23:16:30.371Z,100.00
2018-08-20T23:18:59.031Z,100.00
2018-08-20T23:21:32.296Z,100.00
2018-08-20T23:24:00.937Z,100.00
2018-08-20T23:26:29.595Z,100.00
2018-08-20T23:28:58.304Z,100.00
2018-08-20T23:31:26.972Z,100.00
2018-08-20T23:33:55.637Z,100.00
2018-08-20T23:36:24.303Z,100.00
2018-08-20T23:38:53.016Z,100.00
2018-08-20T23:41:21.756Z,100.00
2018-08-20T23:44:00.647Z,100.00
2018-08-20T23:46:50.321Z,100.00
2018-08-20T23:49:19.009Z,100.00
2018-08-20T23:51:47.715Z,100.00
2018-08-20T23:54:16.399Z,100.00
2018-08-20T23:56:45.112Z,100.00
2018-08-20T23:59:13.795Z,100.00
